sensor_id;sensor_type;location;lat;lon;timestamp;P1;durP1;ratioP1;P2;durP2;ratioP2
8365;SDS011;4220;42.502;24.188;2022-07-10T00:00:24;7.65;;;6.95;;
8365;SDS011;4220;42.502;24.188;2022-07-10T00:02:52;7.70;;;7.00;;
8365;SDS011;4220;42.502;24.188;2022-07-10T00:05:20;7.47;;;6.88;;
8365;SDS011;4220;42.502;24.188;2022-07-10T00:07:49;10.95;;;6.72;;
8365;SDS011;4220;42.502;24.188;2022-07-10T00:10:16;7.05;;;6.38;;
8365;SDS011;4220;42.502;24.188;2022-07-10T00:12:44;6.93;;;6.28;;
8365;SDS011;4220;42.502;24.188;2022-07-10T00:15:11;6.63;;;6.03;;
8365;SDS011;4220;42.502;24.188;2022-07-10T00:17:38;8.57;;;6.50;;
8365;SDS011;4220;42.502;24.188;2022-07-10T00:20:06;8.02;;;7.32;;
8365;SDS011;4220;42.502;24.188;2022-07-10T00:22:35;7.13;;;6.35;;
8365;SDS011;4220;42.502;24.188;2022-07-10T00:25:03;7.80;;;6.90;;
8365;SDS011;4220;42.502;24.188;2022-07-10T00:27:31;7.72;;;7.03;;
8365;SDS011;4220;42.502;24.188;2022-07-10T00:29:57;8.20;;;7.40;;
8365;SDS011;4220;42.502;24.188;2022-07-10T00:32:25;7.45;;;6.75;;
8365;SDS011;4220;42.502;24.188;2022-07-10T00:34:52;7.45;;;6.85;;
8365;SDS011;4220;42.502;24.188;2022-07-10T00:37:18;9.32;;;7.30;;
8365;SDS011;4220;42.502;24.188;2022-07-10T00:39:47;7.97;;;7.18;;
8365;SDS011;4220;42.502;24.188;2022-07-10T00:42:14;8.45;;;7.72;;
8365;SDS011;4220;42.502;24.188;2022-07-10T00:44:42;8.18;;;7.40;;
8365;SDS011;4220;42.502;24.188;2022-07-10T00:47:10;9.07;;;7.72;;
8365;SDS011;4220;42.502;24.188;2022-07-10T00:49:39;9.88;;;8.88;;
8365;SDS011;4220;42.502;24.188;2022-07-10T00:52:07;9.38;;;8.48;;
8365;SDS011;4220;42.502;24.188;2022-07-10T00:54:36;9.30;;;8.43;;
8365;SDS011;4220;42.502;24.188;2022-07-10T00:57:05;9.15;;;8.27;;
8365;SDS011;4220;42.502;24.188;2022-07-10T00:59:33;10.85;;;9.25;;
8365;SDS011;4220;42.502;24.188;2022-07-10T01:02:00;9.63;;;8.60;;
8365;SDS011;4220;42.502;24.188;2022-07-10T01:04:27;9.30;;;8.40;;
8365;SDS011;4220;42.502;24.188;2022-07-10T01:06:54;9.77;;;8.88;;
8365;SDS011;4220;42.502;24.188;2022-07-10T01:09:21;11.65;;;9.25;;
8365;SDS011;4220;42.502;24.188;2022-07-10T01:11:48;9.60;;;8.65;;
8365;SDS011;4220;42.502;24.188;2022-07-10T01:14:17;11.07;;;9.77;;
8365;SDS011;4220;42.502;24.188;2022-07-10T01:16:45;10.57;;;9.48;;
8365;SDS011;4220;42.502;24.188;2022-07-10T01:19:12;10.70;;;9.70;;
8365;SDS011;4220;42.502;24.188;2022-07-10T01:21:40;11.90;;;9.88;;
8365;SDS011;4220;42.502;24.188;2022-07-10T01:24:08;10.80;;;9.85;;
8365;SDS011;4220;42.502;24.188;2022-07-10T01:26:37;10.95;;;9.98;;
8365;SDS011;4220;42.502;24.188;2022-07-10T01:29:07;10.10;;;9.20;;
8365;SDS011;4220;42.502;24.188;2022-07-10T01:31:35;11.02;;;10.02;;
8365;SDS011;4220;42.502;24.188;2022-07-10T01:34:04;10.23;;;9.32;;
8365;SDS011;4220;42.502;24.188;2022-07-10T01:36:32;10.15;;;9.18;;
8365;SDS011;4220;42.502;24.188;2022-07-10T01:39:01;10.90;;;9.85;;
8365;SDS011;4220;42.502;24.188;2022-07-10T01:41:28;11.15;;;10.15;;
8365;SDS011;4220;42.502;24.188;2022-07-10T01:43:55;10.57;;;9.60;;
8365;SDS011;4220;42.502;24.188;2022-07-10T01:46:22;10.90;;;9.75;;
8365;SDS011;4220;42.502;24.188;2022-07-10T01:48:49;11.43;;;10.32;;
8365;SDS011;4220;42.502;24.188;2022-07-10T01:51:16;12.13;;;10.95;;
8365;SDS011;4220;42.502;24.188;2022-07-10T01:53:42;12.07;;;10.88;;
8365;SDS011;4220;42.502;24.188;2022-07-10T01:56:11;12.45;;;11.15;;
8365;SDS011;4220;42.502;24.188;2022-07-10T01:58:40;12.07;;;10.98;;
8365;SDS011;4220;42.502;24.188;2022-07-10T02:01:07;12.50;;;11.18;;
8365;SDS011;4220;42.502;24.188;2022-07-10T02:03:34;12.98;;;11.68;;
8365;SDS011;4220;42.502;24.188;2022-07-10T02:06:19;13.15;;;11.75;;
8365;SDS011;4220;42.502;24.188;2022-07-10T02:08:46;11.93;;;10.82;;
8365;SDS011;4220;42.502;24.188;2022-07-10T02:11:14;11.93;;;10.68;;
8365;SDS011;4220;42.502;24.188;2022-07-10T02:13:41;12.00;;;10.90;;
8365;SDS011;4220;42.502;24.188;2022-07-10T02:16:08;12.18;;;10.98;;
8365;SDS011;4220;42.502;24.188;2022-07-10T02:18:35;12.82;;;11.52;;
8365;SDS011;4220;42.502;24.188;2022-07-10T02:21:03;15.15;;;12.35;;
8365;SDS011;4220;42.502;24.188;2022-07-10T02:23:30;12.77;;;11.57;;
8365;SDS011;4220;42.502;24.188;2022-07-10T02:25:56;13.35;;;11.85;;
8365;SDS011;4220;42.502;24.188;2022-07-10T02:28:25;14.02;;;12.73;;
8365;SDS011;4220;42.502;24.188;2022-07-10T02:30:52;14.63;;;12.77;;
8365;SDS011;4220;42.502;24.188;2022-07-10T02:33:18;13.25;;;12.05;;
8365;SDS011;4220;42.502;24.188;2022-07-10T02:35:45;13.73;;;12.50;;
8365;SDS011;4220;42.502;24.188;2022-07-10T02:38:12;13.70;;;12.35;;
8365;SDS011;4220;42.502;24.188;2022-07-10T02:40:39;13.90;;;12.60;;
8365;SDS011;4220;42.502;24.188;2022-07-10T02:43:06;11.65;;;10.65;;
8365;SDS011;4220;42.502;24.188;2022-07-10T02:45:34;12.70;;;11.52;;
8365;SDS011;4220;42.502;24.188;2022-07-10T02:48:01;12.05;;;10.85;;
8365;SDS011;4220;42.502;24.188;2022-07-10T02:50:28;11.07;;;10.07;;
8365;SDS011;4220;42.502;24.188;2022-07-10T02:52:55;9.88;;;8.88;;
8365;SDS011;4220;42.502;24.188;2022-07-10T02:55:22;11.00;;;9.90;;
8365;SDS011;4220;42.502;24.188;2022-07-10T02:57:49;14.23;;;10.35;;
8365;SDS011;4220;42.502;24.188;2022-07-10T03:00:15;10.65;;;9.10;;
8365;SDS011;4220;42.502;24.188;2022-07-10T03:02:44;9.70;;;8.90;;
8365;SDS011;4220;42.502;24.188;2022-07-10T03:05:10;13.63;;;12.23;;
8365;SDS011;4220;42.502;24.188;2022-07-10T03:07:37;13.75;;;12.45;;
8365;SDS011;4220;42.502;24.188;2022-07-10T03:10:04;14.18;;;12.77;;
8365;SDS011;4220;42.502;24.188;2022-07-10T03:12:32;15.52;;;14.05;;
8365;SDS011;4220;42.502;24.188;2022-07-10T03:14:59;13.85;;;12.55;;
8365;SDS011;4220;42.502;24.188;2022-07-10T03:17:25;13.98;;;12.63;;
8365;SDS011;4220;42.502;24.188;2022-07-10T03:19:54;14.25;;;12.85;;
8365;SDS011;4220;42.502;24.188;2022-07-10T03:22:21;12.15;;;10.88;;
8365;SDS011;4220;42.502;24.188;2022-07-10T03:24:48;12.43;;;11.13;;
8365;SDS011;4220;42.502;24.188;2022-07-10T03:27:15;10.48;;;9.63;;
8365;SDS011;4220;42.502;24.188;2022-07-10T03:29:41;11.40;;;10.40;;
8365;SDS011;4220;42.502;24.188;2022-07-10T03:32:08;11.73;;;10.52;;
8365;SDS011;4220;42.502;24.188;2022-07-10T03:34:35;11.77;;;10.52;;
8365;SDS011;4220;42.502;24.188;2022-07-10T03:37:04;12.38;;;11.18;;
8365;SDS011;4220;42.502;24.188;2022-07-10T03:39:30;12.07;;;10.88;;
8365;SDS011;4220;42.502;24.188;2022-07-10T03:41:57;12.95;;;11.75;;
8365;SDS011;4220;42.502;24.188;2022-07-10T03:44:24;13.20;;;12.00;;
8365;SDS011;4220;42.502;24.188;2022-07-10T03:46:51;12.98;;;11.77;;
8365;SDS011;4220;42.502;24.188;2022-07-10T03:49:18;11.35;;;10.35;;
8365;SDS011;4220;42.502;24.188;2022-07-10T03:51:45;11.32;;;10.32;;
8365;SDS011;4220;42.502;24.188;2022-07-10T03:54:13;12.05;;;10.65;;
8365;SDS011;4220;42.502;24.188;2022-07-10T03:56:40;11.30;;;10.10;;
8365;SDS011;4220;42.502;24.188;2022-07-10T03:59:20;10.85;;;9.82;;
8365;SDS011;4220;42.502;24.188;2022-07-10T04:01:47;11.20;;;10.00;;
8365;SDS011;4220;42.502;24.188;2022-07-10T04:04:14;11.65;;;10.45;;
8365;SDS011;4220;42.502;24.188;2022-07-10T04:06:41;11.77;;;10.68;;
8365;SDS011;4220;42.502;24.188;2022-07-10T04:09:08;12.90;;;11.60;;
8365;SDS011;4220;42.502;24.188;2022-07-10T04:11:36;12.60;;;11.40;;
8365;SDS011;4220;42.502;24.188;2022-07-10T04:14:03;11.48;;;10.50;;
8365;SDS011;4220;42.502;24.188;2022-07-10T04:16:30;12.30;;;11.20;;
8365;SDS011;4220;42.502;24.188;2022-07-10T04:18:56;12.10;;;11.00;;
8365;SDS011;4220;42.502;24.188;2022-07-10T04:21:23;11.73;;;10.63;;
8365;SDS011;4220;42.502;24.188;2022-07-10T04:23:50;13.80;;;10.25;;
8365;SDS011;4220;42.502;24.188;2022-07-10T04:26:17;10.82;;;9.75;;
8365;SDS011;4220;42.502;24.188;2022-07-10T04:28:45;11.65;;;10.55;;
8365;SDS011;4220;42.502;24.188;2022-07-10T04:31:12;11.73;;;10.68;;
8365;SDS011;4220;42.502;24.188;2022-07-10T04:33:39;11.30;;;10.20;;
8365;SDS011;4220;42.502;24.188;2022-07-10T04:36:06;10.73;;;9.73;;
8365;SDS011;4220;42.502;24.188;2022-07-10T04:38:33;10.48;;;9.50;;
8365;SDS011;4220;42.502;24.188;2022-07-10T04:41:00;11.07;;;9.98;;
8365;SDS011;4220;42.502;24.188;2022-07-10T04:43:27;11.18;;;9.93;;
8365;SDS011;4220;42.502;24.188;2022-07-10T04:45:55;11.63;;;10.52;;
8365;SDS011;4220;42.502;24.188;2022-07-10T04:48:22;10.65;;;9.65;;
8365;SDS011;4220;42.502;24.188;2022-07-10T04:50:49;11.35;;;10.35;;
8365;SDS011;4220;42.502;24.188;2022-07-10T04:53:15;11.73;;;10.63;;
8365;SDS011;4220;42.502;24.188;2022-07-10T04:55:42;11.80;;;10.65;;
8365;SDS011;4220;42.502;24.188;2022-07-10T04:58:09;12.73;;;10.65;;
8365;SDS011;4220;42.502;24.188;2022-07-10T05:00:36;12.43;;;11.13;;
8365;SDS011;4220;42.502;24.188;2022-07-10T05:03:04;11.00;;;9.93;;
8365;SDS011;4220;42.502;24.188;2022-07-10T05:05:31;10.88;;;9.93;;
8365;SDS011;4220;42.502;24.188;2022-07-10T05:07:58;11.13;;;10.10;;
8365;SDS011;4220;42.502;24.188;2022-07-10T05:10:26;11.48;;;10.32;;
8365;SDS011;4220;42.502;24.188;2022-07-10T05:12:53;12.27;;;11.07;;
8365;SDS011;4220;42.502;24.188;2022-07-10T05:15:20;11.60;;;10.60;;
8365;SDS011;4220;42.502;24.188;2022-07-10T05:17:47;11.15;;;10.15;;
8365;SDS011;4220;42.502;24.188;2022-07-10T05:20:15;10.80;;;9.80;;
8365;SDS011;4220;42.502;24.188;2022-07-10T05:22:42;10.45;;;9.45;;
8365;SDS011;4220;42.502;24.188;2022-07-10T05:25:09;11.00;;;10.00;;
8365;SDS011;4220;42.502;24.188;2022-07-10T05:27:36;11.05;;;9.95;;
8365;SDS011;4220;42.502;24.188;2022-07-10T05:30:02;11.13;;;10.15;;
8365;SDS011;4220;42.502;24.188;2022-07-10T05:32:30;10.15;;;9.23;;
8365;SDS011;4220;42.502;24.188;2022-07-10T05:34:58;10.40;;;9.35;;
8365;SDS011;4220;42.502;24.188;2022-07-10T05:37:26;9.82;;;8.82;;
8365;SDS011;4220;42.502;24.188;2022-07-10T05:39:53;9.73;;;8.93;;
8365;SDS011;4220;42.502;24.188;2022-07-10T05:42:19;9.85;;;8.85;;
8365;SDS011;4220;42.502;24.188;2022-07-10T05:44:46;10.30;;;9.23;;
8365;SDS011;4220;42.502;24.188;2022-07-10T05:47:13;10.45;;;9.38;;
8365;SDS011;4220;42.502;24.188;2022-07-10T05:49:40;10.38;;;9.38;;
8365;SDS011;4220;42.502;24.188;2022-07-10T05:52:08;9.35;;;8.60;;
8365;SDS011;4220;42.502;24.188;2022-07-10T05:54:36;9.85;;;8.88;;
8365;SDS011;4220;42.502;24.188;2022-07-10T05:57:03;10.43;;;9.15;;
8365;SDS011;4220;42.502;24.188;2022-07-10T05:59:32;10.15;;;9.20;;
8365;SDS011;4220;42.502;24.188;2022-07-10T06:01:59;9.50;;;8.70;;
8365;SDS011;4220;42.502;24.188;2022-07-10T06:04:26;9.90;;;9.00;;
8365;SDS011;4220;42.502;24.188;2022-07-10T06:06:53;11.48;;;9.27;;
8365;SDS011;4220;42.502;24.188;2022-07-10T06:09:20;10.25;;;9.23;;
8365;SDS011;4220;42.502;24.188;2022-07-10T06:11:48;10.70;;;9.60;;
8365;SDS011;4220;42.502;24.188;2022-07-10T06:14:15;10.48;;;9.55;;
8365;SDS011;4220;42.502;24.188;2022-07-10T06:16:42;10.05;;;9.25;;
8365;SDS011;4220;42.502;24.188;2022-07-10T06:19:09;10.07;;;9.25;;
8365;SDS011;4220;42.502;24.188;2022-07-10T06:21:36;10.65;;;8.88;;
8365;SDS011;4220;42.502;24.188;2022-07-10T06:24:03;10.13;;;8.88;;
8365;SDS011;4220;42.502;24.188;2022-07-10T06:26:30;9.82;;;8.95;;
8365;SDS011;4220;42.502;24.188;2022-07-10T06:28:58;9.85;;;8.93;;
8365;SDS011;4220;42.502;24.188;2022-07-10T06:31:25;8.93;;;8.23;;
8365;SDS011;4220;42.502;24.188;2022-07-10T06:33:52;8.68;;;7.85;;
8365;SDS011;4220;42.502;24.188;2022-07-10T06:36:19;8.73;;;7.93;;
8365;SDS011;4220;42.502;24.188;2022-07-10T06:38:46;7.85;;;7.15;;
8365;SDS011;4220;42.502;24.188;2022-07-10T06:41:12;9.45;;;7.32;;
8365;SDS011;4220;42.502;24.188;2022-07-10T06:43:39;7.32;;;6.53;;
8365;SDS011;4220;42.502;24.188;2022-07-10T06:46:07;8.20;;;7.50;;
8365;SDS011;4220;42.502;24.188;2022-07-10T06:48:34;9.93;;;7.68;;
8365;SDS011;4220;42.502;24.188;2022-07-10T06:51:05;77.82;;;62.25;;
8365;SDS011;4220;42.502;24.188;2022-07-10T06:53:32;24.58;;;20.25;;
8365;SDS011;4220;42.502;24.188;2022-07-10T06:55:58;10.95;;;9.05;;
8365;SDS011;4220;42.502;24.188;2022-07-10T06:58:25;14.93;;;13.43;;
8365;SDS011;4220;42.502;24.188;2022-07-10T07:00:52;18.33;;;16.42;;
8365;SDS011;4220;42.502;24.188;2022-07-10T07:03:20;13.68;;;11.10;;
8365;SDS011;4220;42.502;24.188;2022-07-10T07:05:47;41.70;;;31.50;;
8365;SDS011;4220;42.502;24.188;2022-07-10T07:08:14;14.90;;;13.02;;
8365;SDS011;4220;42.502;24.188;2022-07-10T07:10:41;10.80;;;9.80;;
8365;SDS011;4220;42.502;24.188;2022-07-10T07:13:09;15.63;;;12.85;;
8365;SDS011;4220;42.502;24.188;2022-07-10T07:15:36;27.45;;;23.45;;
8365;SDS011;4220;42.502;24.188;2022-07-10T07:18:07;11.60;;;10.55;;
8365;SDS011;4220;42.502;24.188;2022-07-10T07:20:38;11.20;;;10.10;;
8365;SDS011;4220;42.502;24.188;2022-07-10T07:23:23;10.70;;;9.73;;
8365;SDS011;4220;42.502;24.188;2022-07-10T07:25:50;10.50;;;9.30;;
8365;SDS011;4220;42.502;24.188;2022-07-10T07:28:18;11.23;;;10.32;;
8365;SDS011;4220;42.502;24.188;2022-07-10T07:30:45;10.23;;;9.38;;
8365;SDS011;4220;42.502;24.188;2022-07-10T07:33:13;10.85;;;9.75;;
8365;SDS011;4220;42.502;24.188;2022-07-10T07:35:41;11.30;;;10.20;;
8365;SDS011;4220;42.502;24.188;2022-07-10T07:38:09;9.52;;;8.73;;
8365;SDS011;4220;42.502;24.188;2022-07-10T07:40:36;10.18;;;9.32;;
8365;SDS011;4220;42.502;24.188;2022-07-10T07:43:03;11.05;;;9.98;;
8365;SDS011;4220;42.502;24.188;2022-07-10T07:45:30;9.73;;;8.93;;
8365;SDS011;4220;42.502;24.188;2022-07-10T07:47:57;9.15;;;8.35;;
8365;SDS011;4220;42.502;24.188;2022-07-10T07:50:27;9.38;;;8.50;;
8365;SDS011;4220;42.502;24.188;2022-07-10T07:52:58;9.50;;;8.55;;
8365;SDS011;4220;42.502;24.188;2022-07-10T07:55:26;10.48;;;8.80;;
8365;SDS011;4220;42.502;24.188;2022-07-10T07:57:53;9.25;;;8.45;;
8365;SDS011;4220;42.502;24.188;2022-07-10T08:00:21;11.00;;;9.25;;
8365;SDS011;4220;42.502;24.188;2022-07-10T08:02:49;8.85;;;8.00;;
8365;SDS011;4220;42.502;24.188;2022-07-10T08:05:16;7.57;;;6.97;;
8365;SDS011;4220;42.502;24.188;2022-07-10T08:07:44;9.45;;;8.45;;
8365;SDS011;4220;42.502;24.188;2022-07-10T08:10:15;8.93;;;8.13;;
8365;SDS011;4220;42.502;24.188;2022-07-10T08:12:43;8.90;;;8.02;;
8365;SDS011;4220;42.502;24.188;2022-07-10T08:15:12;8.60;;;7.78;;
8365;SDS011;4220;42.502;24.188;2022-07-10T08:17:41;9.18;;;8.38;;
8365;SDS011;4220;42.502;24.188;2022-07-10T08:20:10;8.98;;;8.13;;
8365;SDS011;4220;42.502;24.188;2022-07-10T08:22:38;8.77;;;8.07;;
8365;SDS011;4220;42.502;24.188;2022-07-10T08:25:06;8.55;;;7.85;;
8365;SDS011;4220;42.502;24.188;2022-07-10T08:27:34;9.30;;;8.60;;
8365;SDS011;4220;42.502;24.188;2022-07-10T08:30:01;8.48;;;7.68;;
8365;SDS011;4220;42.502;24.188;2022-07-10T08:32:29;9.88;;;7.82;;
8365;SDS011;4220;42.502;24.188;2022-07-10T08:34:56;9.88;;;8.98;;
8365;SDS011;4220;42.502;24.188;2022-07-10T08:37:24;8.90;;;8.15;;
8365;SDS011;4220;42.502;24.188;2022-07-10T08:39:51;8.77;;;7.80;;
8365;SDS011;4220;42.502;24.188;2022-07-10T08:42:18;9.18;;;8.40;;
8365;SDS011;4220;42.502;24.188;2022-07-10T08:44:46;8.02;;;7.22;;
8365;SDS011;4220;42.502;24.188;2022-07-10T08:47:13;9.20;;;7.88;;
8365;SDS011;4220;42.502;24.188;2022-07-10T08:49:45;8.15;;;7.35;;
8365;SDS011;4220;42.502;24.188;2022-07-10T08:52:17;7.22;;;6.63;;
8365;SDS011;4220;42.502;24.188;2022-07-10T08:54:52;7.68;;;7.00;;
8365;SDS011;4220;42.502;24.188;2022-07-10T08:57:20;8.73;;;6.20;;
8365;SDS011;4220;42.502;24.188;2022-07-10T08:59:51;7.30;;;6.70;;
8365;SDS011;4220;42.502;24.188;2022-07-10T09:02:19;6.35;;;5.85;;
8365;SDS011;4220;42.502;24.188;2022-07-10T09:04:45;7.10;;;6.10;;
8365;SDS011;4220;42.502;24.188;2022-07-10T09:07:13;6.03;;;5.53;;
8365;SDS011;4220;42.502;24.188;2022-07-10T09:09:52;6.70;;;6.10;;
8365;SDS011;4220;42.502;24.188;2022-07-10T09:12:20;8.65;;;5.63;;
8365;SDS011;4220;42.502;24.188;2022-07-10T09:14:47;6.00;;;5.50;;
8365;SDS011;4220;42.502;24.188;2022-07-10T09:17:15;5.10;;;4.43;;
8365;SDS011;4220;42.502;24.188;2022-07-10T09:19:42;5.32;;;4.80;;
8365;SDS011;4220;42.502;24.188;2022-07-10T09:22:10;4.88;;;4.43;;
8365;SDS011;4220;42.502;24.188;2022-07-10T09:24:38;5.00;;;4.60;;
8365;SDS011;4220;42.502;24.188;2022-07-10T09:27:06;6.05;;;4.93;;
8365;SDS011;4220;42.502;24.188;2022-07-10T09:29:44;5.30;;;4.80;;
8365;SDS011;4220;42.502;24.188;2022-07-10T09:32:12;5.65;;;4.93;;
8365;SDS011;4220;42.502;24.188;2022-07-10T09:34:41;5.75;;;5.20;;
8365;SDS011;4220;42.502;24.188;2022-07-10T09:37:21;4.88;;;4.47;;
8365;SDS011;4220;42.502;24.188;2022-07-10T09:39:53;5.15;;;4.75;;
8365;SDS011;4220;42.502;24.188;2022-07-10T09:42:28;4.85;;;4.45;;
8365;SDS011;4220;42.502;24.188;2022-07-10T09:45:15;5.40;;;4.90;;
8365;SDS011;4220;42.502;24.188;2022-07-10T09:47:44;4.97;;;4.47;;
8365;SDS011;4220;42.502;24.188;2022-07-10T09:50:21;5.10;;;4.70;;
8365;SDS011;4220;42.502;24.188;2022-07-10T09:52:50;5.47;;;4.82;;
8365;SDS011;4220;42.502;24.188;2022-07-10T09:55:19;4.78;;;4.38;;
8365;SDS011;4220;42.502;24.188;2022-07-10T09:57:52;5.43;;;4.93;;
8365;SDS011;4220;42.502;24.188;2022-07-10T10:00:22;5.05;;;4.63;;
8365;SDS011;4220;42.502;24.188;2022-07-10T10:02:51;5.03;;;4.63;;
8365;SDS011;4220;42.502;24.188;2022-07-10T10:05:22;4.80;;;4.15;;
8365;SDS011;4220;42.502;24.188;2022-07-10T10:07:58;5.88;;;4.22;;
8365;SDS011;4220;42.502;24.188;2022-07-10T10:10:28;5.53;;;4.28;;
8365;SDS011;4220;42.502;24.188;2022-07-10T10:12:58;5.18;;;4.60;;
8365;SDS011;4220;42.502;24.188;2022-07-10T10:15:28;10.18;;;4.55;;
8365;SDS011;4220;42.502;24.188;2022-07-10T10:17:56;4.90;;;4.50;;
8365;SDS011;4220;42.502;24.188;2022-07-10T10:20:26;4.80;;;4.40;;
8365;SDS011;4220;42.502;24.188;2022-07-10T10:23:03;4.65;;;4.35;;
8365;SDS011;4220;42.502;24.188;2022-07-10T10:25:32;4.13;;;3.83;;
8365;SDS011;4220;42.502;24.188;2022-07-10T10:27:59;5.70;;;4.20;;
8365;SDS011;4220;42.502;24.188;2022-07-10T10:30:29;5.05;;;4.65;;
8365;SDS011;4220;42.502;24.188;2022-07-10T10:32:56;7.03;;;4.40;;
8365;SDS011;4220;42.502;24.188;2022-07-10T10:35:45;4.60;;;3.95;;
8365;SDS011;4220;42.502;24.188;2022-07-10T10:38:13;7.53;;;4.55;;
8365;SDS011;4220;42.502;24.188;2022-07-10T10:40:40;5.80;;;4.22;;
8365;SDS011;4220;42.502;24.188;2022-07-10T10:43:17;4.57;;;4.00;;
8365;SDS011;4220;42.502;24.188;2022-07-10T10:45:45;4.40;;;4.00;;
8365;SDS011;4220;42.502;24.188;2022-07-10T10:48:13;4.50;;;4.10;;
8365;SDS011;4220;42.502;24.188;2022-07-10T10:50:41;4.20;;;3.90;;
8365;SDS011;4220;42.502;24.188;2022-07-10T10:53:13;4.85;;;4.10;;
8365;SDS011;4220;42.502;24.188;2022-07-10T10:55:41;3.72;;;3.42;;
8365;SDS011;4220;42.502;24.188;2022-07-10T10:58:46;3.92;;;3.70;;
8365;SDS011;4220;42.502;24.188;2022-07-10T11:01:23;4.80;;;3.55;;
8365;SDS011;4220;42.502;24.188;2022-07-10T11:06:42;3.85;;;3.55;;
8365;SDS011;4220;42.502;24.188;2022-07-10T11:09:25;3.67;;;3.38;;
8365;SDS011;4220;42.502;24.188;2022-07-10T11:11:59;4.63;;;3.17;;
8365;SDS011;4220;42.502;24.188;2022-07-10T11:14:31;3.50;;;3.00;;
8365;SDS011;4220;42.502;24.188;2022-07-10T11:16:58;4.88;;;2.92;;
8365;SDS011;4220;42.502;24.188;2022-07-10T11:19:25;3.53;;;3.22;;
8365;SDS011;4220;42.502;24.188;2022-07-10T11:24:51;3.90;;;3.47;;
8365;SDS011;4220;42.502;24.188;2022-07-10T11:27:43;3.50;;;3.05;;
8365;SDS011;4220;42.502;24.188;2022-07-10T11:30:26;5.40;;;4.30;;
8365;SDS011;4220;42.502;24.188;2022-07-10T11:32:53;6.72;;;3.63;;
8365;SDS011;4220;42.502;24.188;2022-07-10T11:35:20;5.18;;;2.92;;
8365;SDS011;4220;42.502;24.188;2022-07-10T11:37:50;4.70;;;3.08;;
8365;SDS011;4220;42.502;24.188;2022-07-10T11:40:19;3.40;;;3.20;;
8365;SDS011;4220;42.502;24.188;2022-07-10T11:42:50;4.20;;;2.88;;
8365;SDS011;4220;42.502;24.188;2022-07-10T11:45:22;4.70;;;2.70;;
8365;SDS011;4220;42.502;24.188;2022-07-10T11:47:50;3.35;;;2.45;;
8365;SDS011;4220;42.502;24.188;2022-07-10T11:50:17;6.25;;;2.83;;
8365;SDS011;4220;42.502;24.188;2022-07-10T11:52:45;3.63;;;2.70;;
8365;SDS011;4220;42.502;24.188;2022-07-10T11:55:13;3.22;;;2.92;;
8365;SDS011;4220;42.502;24.188;2022-07-10T11:57:42;4.30;;;3.35;;
8365;SDS011;4220;42.502;24.188;2022-07-10T12:00:20;4.80;;;2.90;;
8365;SDS011;4220;42.502;24.188;2022-07-10T12:02:48;5.25;;;2.72;;
8365;SDS011;4220;42.502;24.188;2022-07-10T12:05:29;3.95;;;2.78;;
8365;SDS011;4220;42.502;24.188;2022-07-10T12:07:56;2.50;;;2.30;;
8365;SDS011;4220;42.502;24.188;2022-07-10T12:10:25;3.33;;;2.35;;
8365;SDS011;4220;42.502;24.188;2022-07-10T12:12:54;6.13;;;2.63;;
8365;SDS011;4220;42.502;24.188;2022-07-10T12:15:30;6.88;;;3.03;;
8365;SDS011;4220;42.502;24.188;2022-07-10T12:17:57;4.32;;;2.63;;
8365;SDS011;4220;42.502;24.188;2022-07-10T12:20:24;2.58;;;2.38;;
8365;SDS011;4220;42.502;24.188;2022-07-10T12:22:52;2.45;;;2.25;;
8365;SDS011;4220;42.502;24.188;2022-07-10T12:25:19;3.15;;;2.40;;
8365;SDS011;4220;42.502;24.188;2022-07-10T12:27:46;2.90;;;2.70;;
8365;SDS011;4220;42.502;24.188;2022-07-10T12:30:14;3.10;;;2.42;;
8365;SDS011;4220;42.502;24.188;2022-07-10T12:32:41;2.85;;;2.40;;
8365;SDS011;4220;42.502;24.188;2022-07-10T12:35:08;3.35;;;2.63;;
8365;SDS011;4220;42.502;24.188;2022-07-10T12:37:46;2.40;;;2.20;;
8365;SDS011;4220;42.502;24.188;2022-07-10T12:43:02;2.67;;;2.47;;
8365;SDS011;4220;42.502;24.188;2022-07-10T12:45:31;3.58;;;2.42;;
8365;SDS011;4220;42.502;24.188;2022-07-10T12:47:58;6.20;;;1.92;;
8365;SDS011;4220;42.502;24.188;2022-07-10T12:50:29;2.97;;;2.60;;
8365;SDS011;4220;42.502;24.188;2022-07-10T12:53:08;4.70;;;2.55;;
8365;SDS011;4220;42.502;24.188;2022-07-10T12:55:36;3.38;;;2.35;;
8365;SDS011;4220;42.502;24.188;2022-07-10T12:58:07;2.50;;;2.30;;
8365;SDS011;4220;42.502;24.188;2022-07-10T13:00:43;3.78;;;2.40;;
8365;SDS011;4220;42.502;24.188;2022-07-10T13:03:16;2.90;;;2.30;;
8365;SDS011;4220;42.502;24.188;2022-07-10T13:05:44;3.00;;;2.40;;
8365;SDS011;4220;42.502;24.188;2022-07-10T13:08:12;2.58;;;2.38;;
8365;SDS011;4220;42.502;24.188;2022-07-10T13:10:41;3.20;;;2.40;;
8365;SDS011;4220;42.502;24.188;2022-07-10T13:13:09;3.33;;;2.60;;
8365;SDS011;4220;42.502;24.188;2022-07-10T13:15:38;3.25;;;2.40;;
8365;SDS011;4220;42.502;24.188;2022-07-10T13:18:14;2.30;;;2.10;;
8365;SDS011;4220;42.502;24.188;2022-07-10T13:20:42;2.10;;;2.00;;
8365;SDS011;4220;42.502;24.188;2022-07-10T13:23:10;2.53;;;2.33;;
8365;SDS011;4220;42.502;24.188;2022-07-10T13:25:36;2.33;;;2.10;;
8365;SDS011;4220;42.502;24.188;2022-07-10T13:28:04;2.08;;;1.98;;
8365;SDS011;4220;42.502;24.188;2022-07-10T13:30:31;2.03;;;1.92;;
8365;SDS011;4220;42.502;24.188;2022-07-10T13:33:00;2.25;;;2.05;;
8365;SDS011;4220;42.502;24.188;2022-07-10T13:35:27;2.25;;;2.05;;
8365;SDS011;4220;42.502;24.188;2022-07-10T13:37:54;2.03;;;1.92;;
8365;SDS011;4220;42.502;24.188;2022-07-10T13:40:24;2.38;;;2.15;;
8365;SDS011;4220;42.502;24.188;2022-07-10T13:42:51;3.35;;;3.05;;
8365;SDS011;4220;42.502;24.188;2022-07-10T13:45:19;5.00;;;3.70;;
8365;SDS011;4220;42.502;24.188;2022-07-10T13:47:46;2.58;;;2.38;;
8365;SDS011;4220;42.502;24.188;2022-07-10T13:50:14;4.18;;;2.28;;
8365;SDS011;4220;42.502;24.188;2022-07-10T13:52:41;2.70;;;2.50;;
8365;SDS011;4220;42.502;24.188;2022-07-10T13:55:09;2.28;;;2.08;;
8365;SDS011;4220;42.502;24.188;2022-07-10T13:57:37;4.25;;;2.42;;
8365;SDS011;4220;42.502;24.188;2022-07-10T14:00:05;4.20;;;2.55;;
8365;SDS011;4220;42.502;24.188;2022-07-10T14:02:33;2.67;;;2.47;;
8365;SDS011;4220;42.502;24.188;2022-07-10T14:04:59;2.42;;;2.22;;
8365;SDS011;4220;42.502;24.188;2022-07-10T14:07:28;4.05;;;2.20;;
8365;SDS011;4220;42.502;24.188;2022-07-10T14:09:55;2.30;;;2.10;;
8365;SDS011;4220;42.502;24.188;2022-07-10T14:12:23;3.08;;;2.30;;
8365;SDS011;4220;42.502;24.188;2022-07-10T14:14:50;2.45;;;2.13;;
8365;SDS011;4220;42.502;24.188;2022-07-10T14:17:17;2.65;;;2.45;;
8365;SDS011;4220;42.502;24.188;2022-07-10T14:19:44;6.43;;;2.63;;
8365;SDS011;4220;42.502;24.188;2022-07-10T14:22:11;2.38;;;2.17;;
8365;SDS011;4220;42.502;24.188;2022-07-10T14:24:39;4.10;;;2.17;;
8365;SDS011;4220;42.502;24.188;2022-07-10T14:27:06;2.70;;;2.50;;
8365;SDS011;4220;42.502;24.188;2022-07-10T14:29:32;2.90;;;2.20;;
8365;SDS011;4220;42.502;24.188;2022-07-10T14:31:59;2.25;;;2.13;;
8365;SDS011;4220;42.502;24.188;2022-07-10T14:34:26;2.13;;;1.90;;
8365;SDS011;4220;42.502;24.188;2022-07-10T14:36:54;2.83;;;2.47;;
8365;SDS011;4220;42.502;24.188;2022-07-10T14:39:21;2.20;;;2.00;;
8365;SDS011;4220;42.502;24.188;2022-07-10T14:41:49;4.38;;;2.30;;
8365;SDS011;4220;42.502;24.188;2022-07-10T14:44:16;2.72;;;2.05;;
8365;SDS011;4220;42.502;24.188;2022-07-10T14:46:43;4.75;;;2.67;;
8365;SDS011;4220;42.502;24.188;2022-07-10T14:49:09;3.45;;;2.70;;
8365;SDS011;4220;42.502;24.188;2022-07-10T14:51:36;21.48;;;15.40;;
8365;SDS011;4220;42.502;24.188;2022-07-10T14:54:04;26.83;;;22.33;;
8365;SDS011;4220;42.502;24.188;2022-07-10T14:56:31;9.70;;;6.53;;
8365;SDS011;4220;42.502;24.188;2022-07-10T14:58:59;2.42;;;2.17;;
8365;SDS011;4220;42.502;24.188;2022-07-10T15:01:26;3.42;;;2.83;;
8365;SDS011;4220;42.502;24.188;2022-07-10T15:03:54;3.22;;;2.42;;
8365;SDS011;4220;42.502;24.188;2022-07-10T15:06:23;2.17;;;2.08;;
8365;SDS011;4220;42.502;24.188;2022-07-10T15:08:49;3.97;;;2.20;;